createdAt,value
2023-05-19T00:01:00.318Z,9.90
2023-05-19T00:03:27.169Z,9.79
2023-05-19T00:05:54.102Z,9.86
2023-05-19T00:08:24.641Z,9.90
2023-05-19T00:10:59.188Z,9.65
2023-05-19T00:13:26.044Z,9.42
2023-05-19T00:15:53.075Z,9.33
2023-05-19T00:18:20.646Z,9.44
2023-05-19T00:20:47.126Z,9.52
2023-05-19T00:23:13.646Z,9.67
2023-05-19T00:25:40.415Z,9.76
2023-05-19T00:28:06.913Z,9.81
2023-05-19T00:30:33.644Z,9.88
2023-05-19T00:33:02.992Z,9.83
2023-05-19T00:35:29.600Z,9.63
2023-05-19T00:37:57.213Z,9.66
2023-05-19T00:40:24.560Z,9.67
2023-05-19T00:42:51.110Z,9.62
2023-05-19T00:45:17.740Z,9.41
2023-05-19T00:47:44.384Z,9.25
2023-05-19T00:50:11.037Z,9.09
2023-05-19T00:52:37.758Z,9.16
2023-05-19T00:55:05.180Z,9.02
2023-05-19T00:57:31.685Z,8.83
2023-05-19T01:00:01.476Z,8.74
2023-05-19T01:02:29.829Z,8.74
2023-05-19T01:04:59.785Z,8.66
2023-05-19T01:07:27.304Z,8.62
2023-05-19T01:09:54.129Z,8.61
2023-05-19T01:12:20.714Z,8.87
2023-05-19T01:14:47.721Z,9.05
2023-05-19T01:17:42.366Z,9.04
2023-05-19T01:20:33.908Z,8.96
2023-05-19T01:23:18.590Z,8.80
2023-05-19T01:26:03.455Z,8.82
2023-05-19T01:28:39.055Z,9.13
2023-05-19T01:31:07.667Z,9.31
2023-05-19T01:33:35.894Z,9.34
2023-05-19T01:36:04.065Z,9.29
2023-05-19T01:38:33.532Z,9.22
2023-05-19T01:41:01.381Z,9.29
2023-05-19T01:43:29.244Z,9.25
2023-05-19T01:45:58.781Z,9.22
2023-05-19T01:48:27.184Z,9.24
2023-05-19T01:50:53.719Z,9.35
2023-05-19T01:53:20.328Z,9.25
2023-05-19T01:55:50.788Z,9.32
2023-05-19T01:58:43.908Z,9.39
2023-05-19T02:01:32.161Z,9.27
2023-05-19T02:04:09.346Z,9.17
2023-05-19T02:07:25.297Z,9.03
2023-05-19T02:10:10.781Z,9.00
2023-05-19T02:12:40.946Z,9.22
2023-05-19T02:15:12.366Z,9.40
2023-05-19T02:17:41.617Z,9.49
2023-05-19T02:20:12.049Z,9.60
2023-05-19T02:22:38.639Z,9.55
2023-05-19T02:25:05.595Z,9.53
2023-05-19T02:27:32.136Z,9.53
2023-05-19T02:29:58.692Z,9.50
2023-05-19T02:32:25.337Z,9.52
2023-05-19T02:34:53.329Z,9.57
2023-05-19T02:37:23.755Z,9.59
2023-05-19T02:39:50.386Z,9.54
2023-05-19T02:42:19.777Z,9.51
2023-05-19T02:44:46.584Z,9.57
2023-05-19T02:47:13.553Z,9.54
2023-05-19T02:49:40.454Z,9.55
2023-05-19T02:52:10.101Z,9.60
2023-05-19T02:54:36.603Z,9.59
2023-05-19T02:57:03.382Z,9.24
2023-05-19T02:59:29.904Z,9.20
2023-05-19T03:01:59.934Z,9.20
2023-05-19T03:04:26.593Z,9.10
2023-05-19T03:06:54.170Z,9.07
2023-05-19T03:09:20.837Z,9.21
2023-05-19T03:11:47.458Z,9.27
2023-05-19T03:14:14.018Z,9.05
2023-05-19T03:16:42.160Z,9.11
2023-05-19T03:19:09.534Z,9.23
2023-05-19T03:21:36.724Z,9.32
2023-05-19T03:24:03.435Z,9.37
2023-05-19T03:26:30.038Z,9.38
2023-05-19T03:28:56.561Z,9.44
2023-05-19T03:31:23.069Z,9.48
2023-05-19T03:33:49.611Z,9.57
2023-05-19T03:36:16.091Z,9.58
2023-05-19T03:38:42.625Z,9.58
2023-05-19T03:41:09.130Z,9.47
2023-05-19T03:43:35.699Z,9.51
2023-05-19T03:46:02.329Z,9.62
2023-05-19T03:48:28.998Z,9.63
2023-05-19T03:50:55.656Z,9.48
2023-05-19T03:53:22.274Z,9.41
2023-05-19T03:55:52.141Z,9.27
2023-05-19T03:58:18.892Z,9.08
2023-05-19T04:00:45.376Z,9.12
2023-05-19T04:03:12.040Z,9.35
2023-05-19T04:05:38.739Z,9.53
2023-05-19T04:08:05.609Z,9.60
2023-05-19T04:10:32.407Z,9.65
2023-05-19T04:12:59.160Z,9.64
2023-05-19T04:15:25.989Z,9.66
2023-05-19T04:17:52.607Z,9.74
2023-05-19T04:20:19.211Z,9.79
2023-05-19T04:22:45.689Z,9.82
2023-05-19T04:25:12.296Z,9.86
2023-05-19T04:27:42.366Z,9.86
2023-05-19T04:30:09.409Z,9.89
2023-05-19T04:32:37.460Z,9.79
2023-05-19T04:35:04.796Z,9.65
2023-05-19T04:37:31.545Z,9.65
2023-05-19T04:39:58.180Z,9.62
2023-05-19T04:42:28.969Z,9.70
2023-05-19T04:44:55.554Z,9.83
2023-05-19T04:47:22.161Z,9.92
2023-05-19T04:49:48.793Z,9.84
2023-05-19T04:52:16.039Z,9.80
2023-05-19T04:54:42.634Z,9.76
2023-05-19T04:57:10.467Z,9.70
2023-05-19T04:59:37.034Z,9.73
2023-05-19T05:02:04.361Z,9.73
2023-05-19T05:04:32.088Z,9.73
2023-05-19T05:06:58.600Z,9.68
2023-05-19T05:09:25.300Z,9.70
2023-05-19T05:11:52.038Z,9.70
2023-05-19T05:14:18.944Z,9.63
2023-05-19T05:16:46.466Z,9.60
2023-05-19T05:19:13.419Z,9.58
2023-05-19T05:21:41.489Z,9.55
2023-05-19T05:24:09.270Z,9.60
2023-05-19T05:26:36.147Z,9.49
2023-05-19T05:29:03.815Z,9.45
2023-05-19T05:31:30.416Z,9.45
2023-05-19T05:33:57.143Z,9.38
2023-05-19T05:36:23.761Z,9.38
2023-05-19T05:38:53.465Z,9.53
2023-05-19T05:41:21.960Z,9.65
2023-05-19T05:43:48.532Z,9.67
2023-05-19T05:46:15.113Z,9.67
2023-05-19T05:48:42.707Z,9.64
2023-05-19T05:51:09.722Z,9.63
2023-05-19T05:53:41.908Z,9.65
2023-05-19T05:56:09.652Z,9.74
2023-05-19T05:58:37.668Z,9.91
2023-05-19T06:01:04.856Z,10.05
2023-05-19T06:03:31.967Z,10.13
2023-05-19T06:05:58.606Z,10.22
2023-05-19T06:08:25.215Z,10.37
2023-05-19T06:10:51.725Z,10.34
2023-05-19T06:13:22.537Z,10.25
2023-05-19T06:15:49.119Z,10.30
2023-05-19T06:18:15.780Z,10.44
2023-05-19T06:20:42.292Z,10.50
2023-05-19T06:23:08.939Z,10.54
2023-05-19T06:25:35.693Z,10.58
2023-05-19T06:28:03.565Z,10.73
2023-05-19T06:30:30.216Z,10.84
2023-05-19T06:32:56.850Z,11.00
2023-05-19T06:35:23.447Z,11.03
2023-05-19T06:37:50.049Z,11.04
2023-05-19T06:40:16.642Z,11.04
2023-05-19T06:42:43.175Z,11.00
2023-05-19T06:45:10.260Z,10.91
2023-05-19T06:47:36.864Z,11.00
2023-05-19T06:50:03.484Z,11.09
2023-05-19T06:52:30.008Z,11.18
2023-05-19T06:54:56.754Z,11.20
2023-05-19T06:57:23.768Z,11.27
2023-05-19T06:59:50.457Z,11.29
2023-05-19T07:02:17.180Z,11.31
2023-05-19T07:04:47.366Z,11.24
2023-05-19T07:07:13.926Z,11.27
2023-05-19T07:09:40.689Z,11.36
2023-05-19T07:12:07.522Z,11.38
2023-05-19T07:14:34.076Z,11.49
2023-05-19T07:17:00.699Z,11.52
2023-05-19T07:19:27.300Z,11.53
2023-05-19T07:21:54.947Z,11.61
2023-05-19T07:24:22.213Z,11.61
2023-05-19T07:26:48.969Z,11.73
2023-05-19T07:29:15.637Z,11.74
2023-05-19T07:31:42.227Z,11.74
2023-05-19T07:34:09.024Z,11.82
2023-05-19T07:36:35.987Z,11.97
2023-05-19T07:39:02.619Z,12.10
2023-05-19T07:41:29.199Z,12.26
2023-05-19T07:43:55.961Z,12.43
2023-05-19T07:46:22.622Z,12.67
2023-05-19T07:48:49.461Z,12.79
2023-05-19T07:51:16.194Z,12.80
2023-05-19T07:53:42.773Z,13.09
2023-05-19T07:56:11.850Z,13.26
2023-05-19T07:58:38.514Z,13.31
2023-05-19T08:01:05.227Z,13.68
2023-05-19T08:03:32.058Z,13.81
2023-05-19T08:05:58.766Z,14.00
2023-05-19T08:08:25.584Z,14.03
2023-05-19T08:10:52.210Z,14.00
2023-05-19T08:13:18.713Z,14.33
2023-05-19T08:15:45.362Z,14.48
2023-05-19T08:18:11.932Z,14.53
2023-05-19T08:20:38.621Z,14.49
2023-05-19T08:23:05.376Z,14.67
2023-05-19T08:25:32.156Z,15.00
2023-05-19T08:27:58.649Z,15.12
2023-05-19T08:30:25.245Z,15.38
2023-05-19T08:32:51.892Z,15.56
2023-05-19T08:35:21.520Z,15.81
2023-05-19T08:37:48.020Z,15.74
2023-05-19T08:40:17.502Z,15.11
2023-05-19T08:42:45.583Z,15.41
2023-05-19T08:45:15.013Z,15.58
2023-05-19T08:47:42.483Z,15.75
2023-05-19T08:50:11.817Z,16.03
2023-05-19T08:52:50.264Z,16.04
2023-05-19T08:55:53.348Z,16.54
2023-05-19T08:58:23.219Z,16.58
2023-05-19T09:00:51.137Z,16.59
2023-05-19T09:05:49.633Z,16.92
2023-05-19T09:08:16.602Z,16.77
2023-05-19T09:10:43.281Z,16.57
2023-05-19T09:13:09.854Z,16.93
2023-05-19T09:15:39.137Z,17.20
2023-05-19T09:18:08.383Z,17.62
2023-05-19T09:20:45.089Z,17.79
2023-05-19T09:23:16.363Z,18.01
2023-05-19T09:25:50.393Z,17.17
2023-05-19T09:28:29.402Z,16.29
2023-05-19T09:31:06.242Z,15.97
2023-05-19T09:33:34.909Z,16.26
2023-05-19T09:36:01.942Z,16.39
2023-05-19T09:38:31.517Z,16.08
2023-05-19T09:40:59.774Z,16.05
2023-05-19T09:43:31.812Z,15.95
2023-05-19T09:46:13.612Z,16.41
2023-05-19T09:48:41.080Z,16.76
2023-05-19T09:51:10.715Z,16.89
2023-05-19T09:53:38.994Z,16.87
2023-05-19T09:56:08.624Z,17.13
2023-05-19T09:58:36.371Z,16.93
2023-05-19T10:01:07.559Z,17.00
2023-05-19T10:03:34.616Z,17.00
2023-05-19T10:06:02.063Z,17.32
2023-05-19T10:08:32.261Z,17.44
2023-05-19T10:11:00.081Z,17.66
2023-05-19T10:13:28.200Z,17.71
2023-05-19T10:15:59.239Z,17.72
2023-05-19T10:18:27.817Z,17.36
2023-05-19T10:20:54.959Z,17.12
2023-05-19T10:23:22.382Z,16.70
2023-05-19T10:25:52.001Z,16.85
2023-05-19T10:28:25.887Z,16.84
2023-05-19T10:30:56.877Z,16.88
2023-05-19T10:33:47.375Z,16.81
2023-05-19T10:36:35.390Z,16.88
2023-05-19T10:39:07.794Z,16.87
2023-05-19T10:41:47.048Z,16.87
2023-05-19T10:44:30.652Z,17.04
2023-05-19T10:46:57.478Z,17.04
2023-05-19T10:49:24.292Z,16.73
2023-05-19T10:51:52.534Z,16.47
2023-05-19T10:54:40.710Z,16.34
2023-05-19T10:57:08.340Z,16.27
2023-05-19T10:59:40.045Z,16.03
2023-05-19T11:02:10.122Z,15.92
2023-05-19T11:04:54.117Z,15.85
2023-05-19T11:07:22.444Z,15.90
2023-05-19T11:09:53.478Z,16.05
2023-05-19T11:12:25.050Z,16.28
2023-05-19T11:14:55.089Z,16.62
2023-05-19T11:17:23.769Z,16.54
2023-05-19T11:19:58.663Z,17.07
2023-05-19T11:22:26.938Z,16.83
2023-05-19T11:24:59.779Z,17.30
2023-05-19T11:27:31.395Z,17.12
2023-05-19T11:30:00.482Z,16.76
2023-05-19T11:32:29.288Z,16.57
2023-05-19T11:34:57.631Z,16.72
2023-05-19T11:37:24.353Z,16.71
2023-05-19T11:39:52.276Z,16.59
2023-05-19T11:42:19.176Z,16.70
2023-05-19T11:44:46.410Z,16.84
2023-05-19T11:47:14.326Z,17.11
2023-05-19T11:49:45.908Z,17.39
2023-05-19T11:52:12.930Z,17.73
2023-05-19T11:54:41.827Z,17.38
2023-05-19T11:57:10.633Z,16.95
2023-05-19T11:59:39.235Z,16.71
2023-05-19T12:02:19.201Z,16.55
2023-05-19T12:04:46.967Z,16.54
2023-05-19T12:07:17.653Z,17.15
2023-05-19T12:09:46.020Z,17.24
2023-05-19T12:12:22.538Z,16.74
2023-05-19T12:14:51.120Z,16.46
2023-05-19T12:17:25.531Z,16.28
2023-05-19T12:19:52.460Z,16.16
2023-05-19T12:22:19.277Z,16.12
2023-05-19T12:24:47.198Z,16.13
2023-05-19T12:27:19.596Z,16.24
2023-05-19T12:29:57.308Z,16.65
2023-05-19T12:32:25.384Z,17.53
2023-05-19T12:34:53.005Z,17.67
2023-05-19T12:37:19.793Z,18.15
2023-05-19T12:39:48.320Z,18.42
2023-05-19T12:42:16.191Z,18.13
2023-05-19T12:44:46.509Z,18.15
2023-05-19T12:47:14.859Z,17.70
2023-05-19T12:50:01.534Z,17.67
2023-05-19T12:52:29.504Z,17.64
2023-05-19T12:55:05.268Z,17.38
2023-05-19T12:57:38.666Z,17.01
2023-05-19T13:00:10.658Z,16.74
2023-05-19T13:03:08.519Z,16.54
2023-05-19T13:05:39.620Z,16.35
2023-05-19T13:08:08.924Z,16.29
2023-05-19T13:10:36.763Z,16.23
2023-05-19T13:13:04.235Z,16.17
2023-05-19T13:15:36.465Z,16.11
2023-05-19T13:18:06.189Z,16.12
2023-05-19T13:20:33.532Z,16.17
2023-05-19T13:23:00.409Z,16.19
2023-05-19T13:25:27.505Z,16.26
2023-05-19T13:27:54.650Z,16.42
2023-05-19T13:30:21.961Z,16.51
2023-05-19T13:32:48.622Z,16.77
2023-05-19T13:35:18.403Z,16.83
2023-05-19T13:37:45.062Z,16.75
2023-05-19T13:40:12.177Z,16.58
2023-05-19T13:42:38.893Z,16.45
2023-05-19T13:45:06.061Z,16.32
2023-05-19T13:47:32.718Z,16.27
2023-05-19T13:49:59.362Z,16.27
2023-05-19T13:52:28.090Z,16.29
2023-05-19T13:54:56.626Z,16.47
2023-05-19T13:57:23.784Z,16.76
2023-05-19T14:00:10.817Z,17.16
2023-05-19T14:02:38.201Z,17.21
2023-05-19T14:05:05.890Z,17.07
2023-05-19T14:07:34.660Z,16.86
2023-05-19T14:10:02.584Z,16.75
2023-05-19T14:12:37.983Z,16.67
2023-05-19T14:15:14.202Z,16.72
2023-05-19T14:17:40.821Z,16.79
2023-05-19T14:20:08.510Z,16.99
2023-05-19T14:22:35.183Z,17.05
2023-05-19T14:25:02.503Z,17.18
2023-05-19T14:27:29.006Z,17.30
2023-05-19T14:29:55.642Z,17.40
2023-05-19T14:32:22.359Z,17.46
2023-05-19T14:34:52.823Z,17.49
2023-05-19T14:37:20.817Z,17.58
2023-05-19T14:39:47.375Z,17.57
2023-05-19T14:42:16.861Z,17.53
2023-05-19T14:44:43.422Z,17.47
2023-05-19T14:47:11.195Z,17.36
2023-05-19T14:49:39.233Z,17.25
2023-05-19T14:52:06.061Z,17.28
2023-05-19T14:54:32.656Z,17.30
2023-05-19T14:56:59.228Z,17.29
2023-05-19T14:59:26.215Z,17.20
2023-05-19T15:01:52.729Z,17.27
2023-05-19T15:04:19.302Z,17.36
2023-05-19T15:06:48.235Z,17.48
2023-05-19T15:09:18.989Z,17.32
2023-05-19T15:11:45.663Z,17.18
2023-05-19T15:14:12.201Z,16.96
2023-05-19T15:16:38.728Z,16.84
2023-05-19T15:19:05.365Z,16.78
2023-05-19T15:21:31.932Z,16.75
2023-05-19T15:23:58.444Z,16.74
2023-05-19T15:26:25.183Z,16.72
2023-05-19T15:28:52.726Z,16.73
2023-05-19T15:31:19.319Z,16.76
2023-05-19T15:33:46.082Z,16.81
2023-05-19T15:36:16.393Z,16.91
2023-05-19T15:38:42.928Z,17.00
2023-05-19T15:41:10.200Z,17.04
2023-05-19T15:43:36.951Z,17.06
2023-05-19T15:46:04.995Z,17.09
2023-05-19T15:48:32.349Z,17.08
2023-05-19T15:50:59.794Z,17.03
2023-05-19T15:53:26.459Z,16.97
2023-05-19T15:55:52.946Z,16.93
2023-05-19T15:58:19.543Z,16.81
2023-05-19T16:00:48.196Z,16.71
2023-05-19T16:03:14.882Z,16.64
2023-05-19T16:05:41.467Z,16.58
2023-05-19T16:08:08.891Z,16.46
2023-05-19T16:10:38.483Z,16.39
2023-05-19T16:13:05.038Z,16.32
2023-05-19T16:15:31.541Z,16.29
2023-05-19T16:17:58.102Z,16.24
2023-05-19T16:20:27.854Z,16.27
2023-05-19T16:22:55.437Z,16.29
2023-05-19T16:25:22.344Z,16.35
2023-05-19T16:27:48.967Z,16.40
2023-05-19T16:30:16.486Z,16.42
2023-05-19T16:32:43.179Z,16.43
2023-05-19T16:35:10.033Z,16.42
2023-05-19T16:37:36.574Z,16.42
2023-05-19T16:40:03.506Z,16.42
2023-05-19T16:42:30.081Z,16.43
2023-05-19T16:44:56.572Z,16.41
2023-05-19T16:47:23.149Z,16.36
2023-05-19T16:49:49.689Z,16.36
2023-05-19T16:52:16.215Z,16.34
2023-05-19T16:54:42.739Z,16.28
2023-05-19T16:57:09.811Z,16.28
2023-05-19T16:59:36.345Z,16.27
2023-05-19T17:02:03.409Z,16.28
2023-05-19T17:04:30.891Z,16.28
2023-05-19T17:06:57.627Z,16.26
2023-05-19T17:09:26.205Z,16.22
2023-05-19T17:11:53.557Z,16.20
2023-05-19T17:14:20.976Z,16.19
2023-05-19T17:16:47.734Z,16.17
2023-05-19T17:19:16.175Z,16.17
2023-05-19T17:21:42.734Z,16.11
2023-05-19T17:24:09.338Z,16.04
2023-05-19T17:26:35.958Z,16.03
2023-05-19T17:29:02.509Z,15.97
2023-05-19T17:31:29.107Z,15.95
2023-05-19T17:33:58.096Z,15.87
2023-05-19T17:36:24.565Z,15.82
2023-05-19T17:38:51.200Z,15.74
2023-05-19T17:41:17.912Z,15.68
2023-05-19T17:43:44.438Z,15.59
2023-05-19T17:46:12.055Z,15.57
2023-05-19T17:48:39.727Z,15.56
2023-05-19T17:51:09.153Z,15.46
2023-05-19T17:53:36.554Z,15.42
2023-05-19T17:56:06.543Z,15.38
2023-05-19T17:58:33.446Z,15.39
2023-05-19T18:01:00.372Z,15.33
2023-05-19T18:03:27.188Z,15.29
2023-05-19T18:05:58.633Z,15.26
2023-05-19T18:08:25.952Z,15.21
2023-05-19T18:10:54.109Z,15.15
2023-05-19T18:13:23.551Z,15.10
2023-05-19T18:15:50.555Z,15.04
2023-05-19T18:18:17.136Z,15.03
2023-05-19T18:20:47.560Z,14.97
2023-05-19T18:23:14.097Z,14.94
2023-05-19T18:25:40.643Z,14.89
2023-05-19T18:28:07.983Z,14.84
2023-05-19T18:30:34.905Z,14.85
2023-05-19T18:33:03.673Z,14.87
2023-05-19T18:35:30.479Z,14.89
2023-05-19T18:37:57.368Z,14.84
2023-05-19T18:40:24.519Z,14.85
2023-05-19T18:42:51.010Z,14.79
2023-05-19T18:45:17.491Z,14.80
2023-05-19T18:47:46.815Z,14.74
2023-05-19T18:50:14.279Z,14.66
2023-05-19T18:52:40.909Z,14.59
2023-05-19T18:55:07.770Z,14.56
2023-05-19T18:57:34.319Z,14.53
2023-05-19T19:00:00.837Z,14.52
2023-05-19T19:02:27.397Z,14.47
2023-05-19T19:04:53.992Z,14.45
2023-05-19T19:07:20.642Z,14.33
2023-05-19T19:09:47.144Z,14.25
2023-05-19T19:12:13.737Z,14.21
2023-05-19T19:14:40.304Z,14.20
2023-05-19T19:17:06.863Z,14.10
2023-05-19T19:19:33.461Z,13.95
2023-05-19T19:22:00.136Z,13.92
2023-05-19T19:24:28.412Z,13.85
2023-05-19T19:26:54.931Z,13.86
2023-05-19T19:29:21.923Z,13.85
2023-05-19T19:31:48.740Z,13.84
2023-05-19T19:34:15.638Z,13.78
2023-05-19T19:36:42.168Z,13.71
2023-05-19T19:39:08.704Z,13.72
2023-05-19T19:41:35.301Z,13.73
2023-05-19T19:44:01.842Z,13.74
2023-05-19T19:46:31.179Z,13.59
2023-05-19T19:49:00.613Z,13.41
2023-05-19T19:51:27.832Z,13.35
2023-05-19T19:53:54.635Z,13.28
2023-05-19T19:56:23.593Z,13.32
2023-05-19T19:58:51.039Z,13.38
2023-05-19T20:01:20.285Z,13.39
2023-05-19T20:03:47.337Z,13.39
2023-05-19T20:06:14.198Z,13.33
2023-05-19T20:08:40.773Z,13.19
2023-05-19T20:11:07.307Z,13.15
2023-05-19T20:13:34.011Z,13.05
2023-05-19T20:16:03.365Z,13.00
2023-05-19T20:18:30.172Z,12.95
2023-05-19T20:20:56.995Z,12.94
2023-05-19T20:23:23.557Z,12.94
2023-05-19T20:26:06.701Z,13.05
2023-05-19T20:28:37.291Z,13.11
2023-05-19T20:31:03.909Z,13.00
2023-05-19T20:33:30.469Z,12.87
2023-05-19T20:35:57.040Z,12.82
2023-05-19T20:38:23.547Z,12.73
2023-05-19T20:40:50.149Z,12.84
2023-05-19T20:43:16.717Z,12.91
2023-05-19T20:45:44.257Z,12.77
2023-05-19T20:48:11.314Z,12.70
2023-05-19T20:50:39.366Z,12.69
2023-05-19T20:53:07.301Z,12.66
2023-05-19T20:55:36.264Z,12.60
2023-05-19T20:58:06.475Z,12.54
2023-05-19T21:00:33.581Z,12.51
2023-05-19T21:03:00.748Z,12.48
2023-05-19T21:05:27.338Z,12.46
2023-05-19T21:07:53.984Z,12.44
2023-05-19T21:10:23.584Z,12.29
2023-05-19T21:13:00.843Z,12.25
2023-05-19T21:15:27.460Z,12.27
2023-05-19T21:17:55.092Z,12.32
2023-05-19T21:20:21.775Z,12.33
2023-05-19T21:22:48.300Z,12.32
2023-05-19T21:25:17.004Z,12.26
2023-05-19T21:27:48.679Z,12.33
2023-05-19T21:30:24.456Z,12.39
2023-05-19T21:32:51.347Z,12.47
2023-05-19T21:35:17.933Z,12.44
2023-05-19T21:37:44.494Z,12.32
2023-05-19T21:40:11.664Z,12.30
2023-05-19T21:42:38.217Z,12.27
2023-05-19T21:45:05.225Z,12.24
2023-05-19T21:47:33.723Z,12.32
2023-05-19T21:50:03.120Z,12.33
2023-05-19T21:52:30.271Z,12.21
2023-05-19T21:55:00.035Z,12.16
2023-05-19T21:57:26.654Z,12.15
2023-05-19T21:59:53.193Z,12.05
2023-05-19T22:02:23.143Z,12.11
2023-05-19T22:04:55.771Z,12.12
2023-05-19T22:07:26.783Z,12.10
2023-05-19T22:09:53.695Z,11.94
2023-05-19T22:12:20.326Z,11.88
2023-05-19T22:14:46.805Z,11.85
2023-05-19T22:17:13.326Z,11.80
2023-05-19T22:19:39.810Z,11.71
2023-05-19T22:22:13.777Z,11.77
2023-05-19T22:24:41.223Z,11.89
2023-05-19T22:27:08.545Z,12.00
2023-05-19T22:29:38.665Z,12.07
2023-05-19T22:32:12.067Z,12.12
2023-05-19T22:34:41.955Z,12.10
2023-05-19T22:37:08.531Z,12.07
2023-05-19T22:39:35.193Z,11.86
2023-05-19T22:42:02.522Z,11.80
2023-05-19T22:44:29.052Z,11.87
2023-05-19T22:47:00.534Z,11.90
2023-05-19T22:49:29.837Z,11.94
2023-05-19T22:51:56.336Z,11.85
2023-05-19T22:54:25.375Z,11.69
2023-05-19T22:56:51.870Z,11.61
2023-05-19T22:59:18.504Z,11.55
2023-05-19T23:01:51.221Z,11.64
2023-05-19T23:04:17.921Z,11.65
2023-05-19T23:06:49.627Z,11.62
2023-05-19T23:09:17.866Z,11.70
2023-05-19T23:11:45.178Z,11.82
2023-05-19T23:14:11.725Z,11.81
2023-05-19T23:16:41.310Z,11.85
2023-05-19T23:19:11.202Z,11.90
2023-05-19T23:21:37.760Z,11.87
2023-05-19T23:24:05.665Z,11.78
2023-05-19T23:26:37.748Z,11.83
2023-05-19T23:29:11.251Z,11.95
2023-05-19T23:31:42.141Z,11.99
2023-05-19T23:34:12.066Z,11.97
2023-05-19T23:36:38.571Z,11.91
2023-05-19T23:39:05.087Z,11.91
2023-05-19T23:41:31.743Z,11.88
2023-05-19T23:43:58.382Z,11.86
2023-05-19T23:46:27.600Z,11.85
2023-05-19T23:48:57.490Z,11.81
2023-05-19T23:51:24.152Z,11.82
2023-05-19T23:53:50.873Z,11.79
2023-05-19T23:56:17.402Z,11.87
2023-05-19T23:58:46.561Z,11.88
